Highlands Peak, California Weather observations

Data are for observation ending at time listed.
 Day   Time    Ave.   Ave.  Ave.  Vector   Max.   Stn.    Total    Solar   Ave.  
  of    of     Air    Rel.  Wind   Wind    Wind   Baro.  Precip.   Rad.    Soil  
Year   Day     Temp.  Hum.  Speed  Dir.    Gust   Pres.                    Temp. 
2014   (PST)    F      %     mph   deg.    mph     mb.     in.     W/m2     F   
------------------------------------------------------------------------------
 104   20:50   66.4    17    0.9    66      1.8   932.3    0.00       0    70.2
 104   21:00   66.6    17    1.3    41      2.3   932.3    0.00       0    70.1
 104   21:10   66.5    17    0.4    32      1.7   932.3    0.00       0    70.0
 104   21:20   66.6    18    1.3   244      1.7   932.3    0.00       0    69.9
 104   21:30   66.5    18    1.4   238      2.1   932.3    0.00       0    69.8
 104   21:40   66.1    18    0.5   227      1.8   932.3    0.00       0    69.3
 104   21:50   65.5    19    1.8   108      3.9   932.2    0.00       0    69.2
 104   22:00   64.9    19    1.6   110      3.4   932.2    0.00       0    69.0
 104   22:10   65.4    19    0.8   141      1.6   932.2    0.00       0    68.6
 104   22:20   65.4    19    2.0   126      3.4   932.1    0.00       0    68.3
 104   22:30   64.6    20    2.2   113      3.7   932.0    0.00       0    68.1
 104   22:40   64.8    20    2.5   105      3.7   932.0    0.00       0    68.1
 104   22:50   65.3    19    1.7   139      2.6   932.0    0.00       0    67.8
 104   23:00   65.3    19    2.3   134      3.0   931.9    0.00       0    67.4
 104   23:10   65.7    19    1.7   170      2.4   931.9    0.00       0    67.2
 104   23:20   65.6    19    2.0   157      2.5   931.9    0.00       0    67.0
 104   23:30   65.3    20    1.6   154      2.0   931.9    0.00       0    66.8
 104   23:40   65.7    20    1.4   178      1.8   932.0    0.00       0    66.7
 104   23:50   65.6    20    1.2   132      1.6   932.0    0.00       0    66.7
 105    0:00   65.1    20    1.3   146      2.3   931.9    0.00       0    66.8
 105    0:10   65.1    20    1.4   147      2.0   931.8    0.00       0    66.5
 105    0:20   65.2    19    0.7   121      1.5   931.7    0.00       0    66.5
 105    0:30   65.0    20    0.0   338      1.0   931.7    0.00       0    66.4
 105    0:40   64.6    20    2.2    51      3.4   931.7    0.00       0    66.6
 105    0:50   64.3    20    3.7    67      5.1   931.6    0.00       0    66.5
 105    1:00   63.5    21    4.1    79      4.9   931.5    0.00       0    66.2
 105    1:10   63.9    20    2.3    66      3.4   931.4    0.00       0    66.1
 105    1:20   64.3    20    1.8    65      2.9   931.2    0.00       0    66.0
 105    1:30   64.6    19    1.2   351      1.8   931.2    0.00       0    65.9
 105    1:40   64.7    19    1.5    19      2.9   931.1    0.00       0    65.9
 105    1:50   64.5    20    2.2    46      2.9   931.0    0.00       0    65.7
 105    2:00   64.2    20    3.2    72      5.6   930.9    0.00       0    65.5
 105    2:10   63.0    23    5.2    80      6.9   930.8    0.00       0    65.3
 105    2:20   63.1    22    5.2    79      7.1   930.6    0.00       0    65.0
 105    2:30   64.1    21    4.3    83      5.8   930.4    0.00       0    64.8
 105    2:40   64.3    22    6.2    80      8.7   930.2    0.00       0    64.7
 105    2:50   64.2    22    5.4   100      7.5   930.1    0.00       0    64.4
 105    3:00   65.0    20    3.5   145      4.9   930.1    0.00       0    63.6
 105    3:10   65.4    20    1.7   230      3.7   930.2    0.00       0    63.7
 105    3:20   64.8    20    4.4   278      5.4   930.3    0.00       0    64.2
 105    3:30   64.2    21    2.8   319      5.2   930.2    0.00       0    64.4
 105    3:40   63.6    21    6.0    80      8.1   930.1    0.00       0    64.1
 105    3:50   63.2    22    6.3    81      7.9   929.9    0.00       0    63.8
 105    4:00   63.2    21    5.8    80      7.8   929.8    0.00       0    63.7
 105    4:10   64.1    20    4.0    84      5.6   929.7    0.00       0    63.6
 105    4:20   65.6    18    3.0    88      4.3   929.6    0.00       0    63.5
 105    4:30   65.9    18    1.6   124      2.9   929.5    0.00       0    63.5
 105    4:40   65.6    19    1.3   127      2.7   929.5    0.00       0    63.2
 105    4:50   66.3    18    1.5   197      2.6   929.6    0.00       0    62.8
 105    5:00   66.5    18    3.2   237      4.8   929.6    0.00       0    63.2
 105    5:10   64.2    21    3.9   265      5.4   929.6    0.00       0    63.4
 105    5:20   63.5    22    1.4   134      3.0   929.7    0.00       0    63.4
 105    5:30   64.4    20    3.3    92      4.9   929.7    0.00       1    63.2
 105    5:40   63.4    20    4.9    92      6.6   929.7    0.00       3    63.2
 105    5:50   63.4    20    3.2    82      5.3   929.6    0.00       6    63.0
 105    6:00   65.0    19    1.7    30      3.9   929.7    0.00      11    62.9
 105    6:10   65.2    19    0.2   331      1.7   929.7    0.00      19    62.9
 105    6:20   64.5    20    3.5    59      5.3   929.8    0.00      27    62.9
 105    6:30   64.0    21    4.2    76      6.0   929.9    0.00     115    62.8
 105    6:40   64.9    21    3.5   312      5.7   930.1    0.00     202    62.7
 105    6:50   64.5    23    4.3   308      5.2   930.1    0.00     247    62.6
 105    7:00   65.0    22    4.0   309      5.3   930.1    0.00     288    62.6
 105    7:10   65.8    21    2.9   320      4.3   930.1    0.00     328    62.5
 105    7:20   66.6    20    2.2    33      4.0   930.1    0.00     369    62.5
 105    7:30   67.8    26    1.7   101      3.7   930.3    0.00     409    62.5
 105    7:40   68.1    22    2.3   291      4.2   930.4    0.00     448    62.6
 105    7:50   67.2    19    2.0   315      3.3   930.3    0.00     487    62.7
 105    8:00   67.7    20    2.6   302      3.8   930.3    0.00     524    62.7
 105    8:10   67.5    20    2.4   294      3.4   930.3    0.00     562    62.9
 105    8:20   68.0    20    1.9   310      4.3   930.4    0.00     599    63.0
 105    8:30   68.1    21    2.0   283      3.2   930.3    0.00     634    63.1
 105    8:40   67.9    22    2.9   275      3.9   930.3    0.00     667    63.2
 105    8:50   67.9    23    3.0   281      4.8   930.4    0.00     702    63.3
 105    9:00   69.0    22    1.6   277      2.9   930.3    0.00     735    63.5
 105    9:10   69.2    21    2.0   264      4.2   930.4    0.00     764    63.6
 105    9:20   69.3    22    3.5   260      5.3   930.5    0.00     792    63.8
 105    9:30   69.3    22    4.1   255      6.8   930.6    0.00     819    64.0
 105    9:40   69.8    22    3.9   263      6.4   930.7    0.00     844    64.1
 105    9:50   69.8    22    3.6   259      5.6   930.8    0.00     866    64.3
 105   10:00   70.2    23    4.7   275      7.4   930.8    0.00     887    64.6
 105   10:10   70.1    23    5.1   266      8.3   930.8    0.00     908    64.8
 105   10:20   70.4    23    3.4   259      6.0   930.7    0.00     928    65.0
 105   10:30   71.0    24    3.3   249      6.0   930.6    0.00     945    65.2
 105   10:40   71.6    26    3.1   235      6.1   930.4    0.00     960    65.5
 105   10:50   73.3    24    3.5   210      8.0   930.3    0.00     974    65.8
 105   11:00   73.8    25    3.4   204      8.2   930.2    0.00     987    66.0
 105   11:10   73.4    23    4.4   231      8.8   930.1    0.00     998    66.3
 105   11:20   71.2    30    6.2   268      8.4   930.1    0.00    1004    66.6
 105   11:30   69.7    36    5.0   262      8.1   930.0    0.00    1011    66.8
 105   11:40   69.4    33    3.3   260      5.4   929.9    0.00    1016    67.0
 105   11:50   68.8    32    4.7   275      7.8   929.8    0.00    1020    67.3
 105   12:00   68.6    30    3.5   262      5.8   929.7    0.00    1022    67.6
 105   12:10   69.4    29    5.2   264      8.6   929.6    0.00    1021    67.8
 105   12:20   69.9    27    4.7   272      7.7   929.6    0.00    1018    68.1
 105   12:30   70.2    26    4.7   269      7.6   929.5    0.00    1014    68.3
 105   12:40   71.1    24    6.3   267      9.3   929.5    0.00    1010    68.5
 105   12:50   71.4    21    6.3   256      9.2   929.4    0.00    1002    68.8
 105   13:00   71.1    20    7.3   271     10.7   929.4    0.00     992    69.0
 105   13:10   71.8    18    6.0   286      8.8   929.3    0.00     983    69.3
 105   13:20   71.2    19    7.8   271     11.2   929.3    0.00     969    69.6
 105   13:30   70.7    22    6.3   273      9.6   929.1    0.00     954    69.9
 105   13:40   70.0    24    5.0   271      8.5   929.1    0.00     936    70.2
 105   13:50   70.4    26    5.5   273      9.1   929.0    0.00     918    70.6
 105   14:00   71.2    20    5.6   283      9.0   929.0    0.00     896    70.9
 105   14:10   71.0    18    7.6   276     11.8   928.9    0.00     849    71.2
 105   14:20   70.4    18    9.2   281     12.6   928.8    0.00     853    71.5
 105   14:30   70.7    17    8.4   280     14.3   928.7    0.00     829    71.9
 105   14:40   70.5    15   10.0   282     13.7   928.6    0.00     805    72.1
 105   14:50   69.7    16    9.4   287     13.4   928.4    0.00     778    72.4
 105   15:00   69.6    15    7.5   282     11.5   928.3    0.00     749    72.7
 105   15:10   70.3    14    7.1   277     10.2   928.1    0.00     717    73.0
 105   15:20   71.1    13    6.5   277      9.6   928.0    0.00     686    73.2
 105   15:30   71.7    12    4.7   278      7.5   927.9    0.00     656    73.5
 105   15:40   73.1    12    4.4   268      7.7   927.8    0.00     622    73.7
 105   15:50   73.2    12    4.4   266      7.7   927.8    0.00     586    73.9
 105   16:00   73.0     9    1.4   279      3.1   927.7    0.00     551    74.1
 105   16:10   74.0    11    1.2   260      4.3   927.6    0.00     515    74.3
 105   16:20   73.7    18    3.4   281      6.2   927.5    0.00     478    74.4
 105   16:30   72.5    15    3.2   280      5.7   927.4    0.00     440    74.6
 105   16:40   72.8    18    4.2   269      8.0   927.4    0.00     404    74.7
 105   16:50   72.6    19    3.5   277      6.6   927.3    0.00     366    74.8
 105   17:00   72.7    20    5.0   278     11.3   927.3    0.00     327    74.8
 105   17:10   73.0    20    4.6   304      8.6   927.3    0.00     289    74.9
 105   17:20   72.2    21    4.4   310      7.4   927.2    0.00     250    75.0
 105   17:30   72.2    23    3.5   307      7.0   927.2    0.00     212    75.0
 105   17:40   72.0    25    3.7   301      5.8   927.2    0.00     178    75.0
 105   17:50   71.4    27    3.5   307      6.1   927.1    0.00     143    75.0
 105   18:00   71.3    28    2.2   308      4.2   927.0    0.00     112    75.1
 105   18:10   70.9    26    4.1   315      6.3   926.9    0.00      82    75.0
 105   18:20   69.7    24    5.6   316      8.0   926.9    0.00      56    75.0
 105   18:30   68.9    24    6.7   311      8.8   926.8    0.00      32    74.9
 105   18:40   68.6    21    6.8   325      8.8   926.8    0.00      14    74.8
 105   18:50   68.5    20    4.8   344      7.8   926.8    0.00       4    74.7
 105   19:00   68.0    19    3.6    49      6.6   926.8    0.00       1    74.6
 105   19:10   67.8    18    2.8    98      4.9   926.8    0.00       0    74.3
 105   19:20   67.6    16    2.9   120      5.3   926.8    0.00       0    73.8
 105   19:30   67.9    15    2.3   106      4.4   926.9    0.00       0    73.5
 105   19:40   68.3    15    3.6    50      6.8   927.0    0.00       0    73.6
 105   19:50   67.8    15    4.1     6      6.5   927.0    0.00       0    73.6
 105   20:00   68.1    14    2.8    33      5.1   927.1    0.00       0    73.4
 105   20:10   68.8    14    3.6   351      5.3   927.2    0.00       0    73.2
 105   20:20   67.4    15    4.9    15      6.9   927.3    0.00       0    73.1
 105   20:30   66.3    15    3.9   320      5.6   927.3    0.00       0    73.0
 105   20:40   66.2    15    3.6   303      4.4   927.4    0.00       0    72.8

Return to Highlands Peak graphs page.


Western Regional Climate Center,wrcc@dri.edu